Time;durP1;ratioP1;P1;durP2;ratioP2;P2;SDS_P1;SDS_P2;PMS_P1;PMS_P2;Temp;Humidity;BMP_temperature;BMP_pressure;BME280_temperature;BME280_humidity;BME280_pressure;Samples;Min_cycle;Max_cycle;Signal;HPM_P1;HPM_P2
2022/07/26 00:01:31;;;;;;;12.93;3.70;;;18.40;99.90;;;;;;5092487;28;20036;-92
2022/07/26 00:03:56;;;;;;;14.60;3.90;;;18.40;99.90;;;;;;5091229;28;20132;-92
2022/07/26 00:06:22;;;;;;;16.20;4.03;;;18.40;99.90;;;;;;5090761;28;20123;-92
2022/07/26 00:08:48;;;;;;;15.20;4.25;;;18.30;99.90;;;;;;5091289;28;20044;-92
2022/07/26 00:11:14;;;;;;;14.30;4.30;;;18.40;99.90;;;;;;5091274;28;20052;-92
2022/07/26 00:13:40;;;;;;;17.73;4.57;;;18.30;99.90;;;;;;5090120;28;20111;-92
2022/07/26 00:16:05;;;;;;;15.38;4.60;;;18.30;99.90;;;;;;5089991;28;20039;-92
2022/07/26 00:18:31;;;;;;;16.15;3.90;;;18.30;99.90;;;;;;5091361;28;20039;-91
2022/07/26 00:20:57;;;;;;;15.80;4.70;;;18.30;99.90;;;;;;5090992;28;20566;-93
2022/07/26 00:23:23;;;;;;;16.65;4.25;;;18.30;99.90;;;;;;5092074;28;20040;-92
2022/07/26 00:25:49;;;;;;;16.60;4.20;;;18.30;99.90;;;;;;5091894;28;20131;-92
2022/07/26 00:28:15;;;;;;;17.88;4.13;;;18.30;99.90;;;;;;5091115;28;20028;-92
2022/07/26 00:30:40;;;;;;;18.40;4.32;;;18.30;99.90;;;;;;5091259;28;20490;-91
2022/07/26 00:33:06;;;;;;;17.27;4.57;;;18.30;99.90;;;;;;5089514;28;20048;-91
2022/07/26 00:35:32;;;;;;;16.77;4.63;;;18.40;99.90;;;;;;5091127;28;20043;-92
2022/07/26 00:37:58;;;;;;;17.85;4.13;;;18.40;99.90;;;;;;5091733;28;20055;-92
2022/07/26 00:40:24;;;;;;;15.18;4.60;;;18.40;99.90;;;;;;5090965;28;20132;-92
2022/07/26 00:42:49;;;;;;;17.45;4.53;;;18.30;99.90;;;;;;5091468;28;20386;-92
2022/07/26 00:45:16;;;;;;;19.50;5.68;;;18.40;99.90;;;;;;5090912;28;20032;-92
2022/07/26 00:47:42;;;;;;;18.90;4.70;;;18.40;99.90;;;;;;5090537;28;20032;-92
2022/07/26 00:50:11;;;;;;;20.58;5.25;;;18.40;99.90;;;;;;5091495;28;20549;-92
2022/07/26 00:52:37;;;;;;;17.98;4.93;;;18.30;99.90;;;;;;5090775;28;20044;-92
2022/07/26 00:55:06;;;;;;;23.88;5.20;;;18.40;99.90;;;;;;5091512;28;20081;-91
2022/07/26 00:57:34;;;;;;;18.70;4.65;;;18.30;99.90;;;;;;5094620;28;20054;-92
2022/07/26 01:00:01;;;;;;;18.05;5.75;;;18.30;99.90;;;;;;5093480;28;20048;-92
2022/07/26 01:02:26;;;;;;;18.80;4.63;;;18.30;99.90;;;;;;5093955;28;20408;-92
2022/07/26 01:04:52;;;;;;;19.73;5.65;;;18.30;99.90;;;;;;5094956;28;20096;-92
2022/07/26 01:07:18;;;;;;;20.08;5.57;;;18.30;99.90;;;;;;5094990;28;20405;-92
2022/07/26 01:09:43;;;;;;;18.58;5.40;;;18.30;99.90;;;;;;5095402;28;20115;-92
2022/07/26 01:12:09;;;;;;;18.98;5.20;;;18.20;99.90;;;;;;5094966;28;20439;-91
2022/07/26 01:14:35;;;;;;;16.45;5.25;;;18.20;99.90;;;;;;5093399;28;20054;-92
2022/07/26 01:17:01;;;;;;;18.90;5.10;;;18.10;99.90;;;;;;5094385;28;20036;-92
2022/07/26 01:19:26;;;;;;;17.98;5.30;;;18.10;99.90;;;;;;5093722;28;20065;-92
2022/07/26 01:21:52;;;;;;;19.60;4.88;;;18.10;99.90;;;;;;5095259;28;20039;-92
2022/07/26 01:24:18;;;;;;;21.13;5.32;;;18.10;99.90;;;;;;5094189;28;20111;-92
2022/07/26 01:26:44;;;;;;;22.02;5.47;;;18.10;99.90;;;;;;5094895;28;20036;-92
2022/07/26 01:29:10;;;;;;;19.95;5.30;;;18.00;99.90;;;;;;5094190;28;20024;-92
2022/07/26 01:31:36;;;;;;;20.92;5.78;;;18.00;99.90;;;;;;5094812;28;20081;-92
2022/07/26 01:34:01;;;;;;;17.15;5.25;;;18.00;99.90;;;;;;5094006;28;20032;-91
2022/07/26 01:36:27;;;;;;;15.50;5.68;;;17.90;99.90;;;;;;5094419;28;20529;-92
2022/07/26 01:38:52;;;;;;;16.92;5.88;;;17.90;99.90;;;;;;5094714;28;20040;-92
2022/07/26 01:41:18;;;;;;;17.60;5.03;;;17.90;99.90;;;;;;5092728;28;20051;-92
2022/07/26 01:43:43;;;;;;;18.40;5.75;;;17.80;99.90;;;;;;5094427;28;20100;-92
2022/07/26 01:46:09;;;;;;;17.40;5.78;;;17.80;99.90;;;;;;5093656;28;20076;-92
2022/07/26 01:48:35;;;;;;;22.20;6.38;;;17.80;99.90;;;;;;5093097;28;20036;-92
2022/07/26 01:51:01;;;;;;;20.38;5.85;;;17.70;99.90;;;;;;5094089;28;20453;-91
2022/07/26 01:53:27;;;;;;;17.73;6.57;;;17.80;99.90;;;;;;5090458;28;20149;-92
2022/07/26 01:55:53;;;;;;;21.52;5.88;;;17.80;99.90;;;;;;5090946;28;20047;-91
2022/07/26 01:58:19;;;;;;;20.42;6.35;;;17.70;99.90;;;;;;5091041;28;20040;-92
2022/07/26 02:00:45;;;;;;;21.38;6.30;;;17.70;99.90;;;;;;5097538;28;20024;-92
2022/07/26 02:03:11;;;;;;;20.67;5.82;;;17.80;99.90;;;;;;5108395;28;20036;-91
2022/07/26 02:05:37;;;;;;;17.13;5.75;;;17.70;99.90;;;;;;5097691;28;20036;-92
2022/07/26 02:08:03;;;;;;;19.10;5.53;;;17.70;99.90;;;;;;5109572;28;20055;-92
2022/07/26 02:13:13;;;;;;;17.80;5.65;;;17.60;99.90;;;;;;5102379;28;20044;-92
2022/07/26 02:15:40;;;;;;;16.70;5.50;;;17.60;99.90;;;;;;5093491;28;20050;-93
2022/07/26 02:18:07;;;;;;;19.45;6.05;;;17.60;99.90;;;;;;5102847;28;20046;-92
2022/07/26 02:20:33;;;;;;;17.70;5.35;;;17.60;99.90;;;;;;5095209;28;20024;-93
2022/07/26 02:23:02;;;;;;;15.35;5.32;;;17.50;99.90;;;;;;5094242;28;20040;-92
2022/07/26 02:25:28;;;;;;;17.83;5.90;;;17.50;99.90;;;;;;5093614;28;20443;-93
2022/07/26 02:27:54;;;;;;;16.48;5.38;;;17.40;99.90;;;;;;5094138;28;20028;-92
2022/07/26 02:30:19;;;;;;;16.77;5.35;;;17.40;99.90;;;;;;5091624;28;20035;-92
2022/07/26 02:32:46;;;;;;;16.60;5.85;;;17.30;99.90;;;;;;5090914;28;20676;-93
2022/07/26 02:35:13;;;;;;;15.95;5.55;;;17.30;99.90;;;;;;5091037;28;20493;-92
2022/07/26 02:37:39;;;;;;;18.30;5.97;;;17.30;99.90;;;;;;5088400;28;20076;-92
2022/07/26 02:40:06;;;;;;;16.20;5.80;;;17.30;99.90;;;;;;5089501;28;20486;-90
2022/07/26 02:42:32;;;;;;;19.58;5.53;;;17.30;99.90;;;;;;5090425;28;20046;-92
2022/07/26 02:44:58;;;;;;;16.88;6.43;;;17.30;99.90;;;;;;5089968;28;20032;-92
2022/07/26 02:47:24;;;;;;;20.83;6.00;;;17.30;99.90;;;;;;5089224;28;20089;-92
2022/07/26 02:49:49;;;;;;;17.23;6.43;;;17.30;99.90;;;;;;5088993;28;20040;-94
2022/07/26 02:52:15;;;;;;;19.25;6.55;;;17.30;99.90;;;;;;5089976;28;20044;-92
2022/07/26 02:54:40;;;;;;;17.45;6.20;;;17.20;99.90;;;;;;5088667;28;20118;-92
2022/07/26 02:57:06;;;;;;;17.95;5.95;;;17.20;99.90;;;;;;5089294;28;20036;-92
2022/07/26 02:59:32;;;;;;;20.15;6.85;;;17.20;99.90;;;;;;5088669;28;20039;-92
2022/07/26 03:01:57;;;;;;;19.55;6.32;;;17.20;99.90;;;;;;5089084;28;20040;-91
2022/07/26 03:04:23;;;;;;;23.23;7.45;;;17.30;99.90;;;;;;5089372;28;20036;-92
2022/07/26 03:06:48;;;;;;;19.85;7.05;;;17.30;99.90;;;;;;5090143;28;20051;-92
2022/07/26 03:09:14;;;;;;;17.63;6.38;;;17.30;99.90;;;;;;5089147;28;20082;-92
2022/07/26 03:11:40;;;;;;;21.23;6.90;;;17.30;99.90;;;;;;5089638;28;20719;-92
2022/07/26 03:14:05;;;;;;;23.63;7.18;;;17.30;99.90;;;;;;5089583;28;20036;-92
2022/07/26 03:16:31;;;;;;;19.45;6.68;;;17.30;99.90;;;;;;5088917;28;20126;-92
2022/07/26 03:18:57;;;;;;;16.83;6.45;;;17.30;99.90;;;;;;5087256;28;20040;-92
2022/07/26 03:21:23;;;;;;;20.90;7.03;;;17.30;99.90;;;;;;5088048;28;20046;-92
2022/07/26 03:23:48;;;;;;;18.58;7.05;;;17.30;99.90;;;;;;5089701;28;20047;-92
2022/07/26 03:26:14;;;;;;;18.70;6.65;;;17.30;99.90;;;;;;5087641;28;20075;-92
2022/07/26 03:28:41;;;;;;;15.98;6.57;;;17.30;99.90;;;;;;5087867;28;20047;-91
2022/07/26 03:31:07;;;;;;;18.15;6.75;;;17.30;99.90;;;;;;5089680;28;20085;-92
2022/07/26 03:33:33;;;;;;;17.98;7.00;;;17.30;99.90;;;;;;5089424;28;20119;-92
2022/07/26 03:35:58;;;;;;;17.38;7.15;;;17.30;99.90;;;;;;5088831;28;20521;-92
2022/07/26 03:38:24;;;;;;;23.05;7.30;;;17.30;99.90;;;;;;5089514;28;20656;-92
2022/07/26 03:40:50;;;;;;;22.05;7.18;;;17.30;99.90;;;;;;5079332;28;20032;-91
2022/07/26 03:43:15;;;;;;;18.60;6.95;;;17.30;99.90;;;;;;5089476;28;20477;-91
2022/07/26 03:45:41;;;;;;;19.65;6.72;;;17.40;99.90;;;;;;5088506;28;20052;-92
2022/07/26 03:48:07;;;;;;;19.65;7.25;;;17.40;99.90;;;;;;5089088;28;20039;-91
2022/07/26 03:50:32;;;;;;;18.98;6.40;;;17.40;99.90;;;;;;5088481;28;20040;-92
2022/07/26 03:52:58;;;;;;;18.92;6.95;;;17.40;99.90;;;;;;5088664;28;20040;-91
2022/07/26 03:58:08;;;;;;;20.92;6.65;;;17.40;99.90;;;;;;5088550;28;20048;-91
2022/07/26 04:00:33;;;;;;;14.32;4.80;;;17.30;99.90;;;;;;5088952;28;20413;-93
2022/07/26 04:02:59;;;;;;;15.77;5.88;;;17.30;99.90;;;;;;5087238;28;20044;-92
2022/07/26 04:05:24;;;;;;;15.27;6.57;;;17.30;99.90;;;;;;5088528;28;20048;-92
2022/07/26 04:07:50;;;;;;;18.00;6.00;;;17.40;99.90;;;;;;5088544;28;20039;-91
2022/07/26 04:10:17;;;;;;;15.82;6.07;;;17.40;99.90;;;;;;5087979;28;20572;-92
2022/07/26 04:12:42;;;;;;;19.27;6.43;;;17.50;99.90;;;;;;5088802;28;20607;-92
2022/07/26 04:15:09;;;;;;;19.20;7.05;;;17.50;99.90;;;;;;5087715;28;20090;-91
2022/07/26 04:17:39;;;;;;;16.80;7.25;;;17.50;99.90;;;;;;5088704;28;20114;-92
2022/07/26 04:20:06;;;;;;;13.35;5.60;;;17.50;99.90;;;;;;5087947;28;20474;-91
2022/07/26 04:22:32;;;;;;;14.48;6.10;;;17.50;99.90;;;;;;5088273;28;20040;-91
2022/07/26 04:24:58;;;;;;;13.90;5.82;;;17.50;99.90;;;;;;5088651;28;20082;-92
2022/07/26 04:27:24;;;;;;;11.85;4.40;;;17.50;99.90;;;;;;5087931;28;20075;-91
2022/07/26 04:29:49;;;;;;;11.23;4.63;;;17.60;99.90;;;;;;5088080;28;20090;-92
2022/07/26 04:32:15;;;;;;;13.10;4.57;;;17.60;99.90;;;;;;5088245;28;20413;-93
2022/07/26 04:34:40;;;;;;;12.95;4.30;;;17.60;99.90;;;;;;5087417;28;20036;-92
2022/07/26 04:37:06;;;;;;;11.48;4.05;;;17.60;99.90;;;;;;5088108;28;20093;-92
2022/07/26 04:39:31;;;;;;;11.55;4.07;;;17.70;99.90;;;;;;5069228;28;20032;-92
2022/07/26 04:41:57;;;;;;;11.73;4.18;;;17.70;99.90;;;;;;5086852;28;20043;-92
2022/07/26 04:44:22;;;;;;;8.40;3.58;;;17.70;99.90;;;;;;5086478;28;20180;-93
2022/07/26 04:46:48;;;;;;;11.13;4.03;;;17.70;99.90;;;;;;5086917;28;20112;-92
2022/07/26 04:49:13;;;;;;;10.15;3.55;;;17.70;99.90;;;;;;5087946;28;20111;-92
2022/07/26 04:51:39;;;;;;;10.63;3.35;;;17.70;99.90;;;;;;5086282;28;20076;-92
2022/07/26 04:54:05;;;;;;;12.65;3.83;;;17.80;99.90;;;;;;5087882;28;20147;-92
2022/07/26 04:56:30;;;;;;;11.23;3.42;;;17.80;99.90;;;;;;5087410;28;20523;-92
2022/07/26 04:58:56;;;;;;;10.40;3.80;;;17.80;99.90;;;;;;5085977;28;20055;-92
2022/07/26 05:01:21;;;;;;;9.98;2.90;;;17.80;99.90;;;;;;5088017;28;20115;-91
2022/07/26 05:03:47;;;;;;;9.18;2.92;;;17.90;99.90;;;;;;5087737;28;20506;-92
2022/07/26 05:06:13;;;;;;;9.98;2.80;;;17.90;99.90;;;;;;5087311;28;20100;-91
2022/07/26 05:08:40;;;;;;;9.98;3.08;;;17.90;99.90;;;;;;5088261;28;20036;-92
2022/07/26 05:11:06;;;;;;;9.00;2.90;;;17.90;99.90;;;;;;5085449;28;20059;-92
2022/07/26 05:13:32;;;;;;;9.23;2.97;;;18.00;99.90;;;;;;5088483;28;20036;-92
2022/07/26 05:15:58;;;;;;;10.52;3.13;;;18.00;99.90;;;;;;5086087;28;20043;-92
2022/07/26 05:18:24;;;;;;;9.77;2.95;;;18.00;99.90;;;;;;5087524;28;20506;-91
2022/07/26 05:20:50;;;;;;;8.68;3.33;;;18.00;99.90;;;;;;5087302;28;20051;-92
2022/07/26 05:23:16;;;;;;;11.43;2.53;;;18.00;99.90;;;;;;5087101;28;20034;-92
2022/07/26 05:25:41;;;;;;;8.10;2.60;;;18.10;99.90;;;;;;5087709;28;20047;-92
2022/07/26 05:28:07;;;;;;;7.80;2.33;;;18.10;99.90;;;;;;5087496;28;20170;-92
2022/07/26 05:30:32;;;;;;;11.93;2.50;;;18.20;99.90;;;;;;5087738;28;20048;-92
2022/07/26 05:32:58;;;;;;;10.15;2.63;;;18.20;99.90;;;;;;5087768;28;20077;-92
2022/07/26 05:35:24;;;;;;;9.85;2.50;;;18.30;99.90;;;;;;5088253;28;20674;-93
2022/07/26 05:37:49;;;;;;;9.43;2.80;;;18.30;99.90;;;;;;5088915;28;20051;-92
2022/07/26 05:40:15;;;;;;;7.60;2.13;;;18.40;99.90;;;;;;5090408;28;20028;-92
2022/07/26 05:42:41;;;;;;;11.95;2.42;;;18.40;99.90;;;;;;5093993;28;20074;-92
2022/07/26 05:45:07;;;;;;;12.25;2.38;;;18.40;99.90;;;;;;5094355;28;20052;-92
2022/07/26 05:47:33;;;;;;;8.77;2.30;;;18.40;99.90;;;;;;5094231;28;20036;-92
2022/07/26 05:49:58;;;;;;;11.27;3.00;;;18.40;99.90;;;;;;5094198;28;20044;-92
2022/07/26 05:52:24;;;;;;;10.43;2.20;;;18.40;99.90;;;;;;5093285;28;20093;-91
2022/07/26 05:54:50;;;;;;;9.20;2.10;;;18.40;99.90;;;;;;5091397;28;20110;-91
2022/07/26 05:57:15;;;;;;;8.65;2.08;;;18.40;99.90;;;;;;5093793;28;20068;-91
2022/07/26 05:59:41;;;;;;;11.68;2.13;;;18.40;99.90;;;;;;5093394;28;20039;-92
2022/07/26 06:02:07;;;;;;;7.72;1.70;;;18.40;99.90;;;;;;5089516;28;20040;-92
2022/07/26 06:04:33;;;;;;;7.32;1.73;;;18.40;99.90;;;;;;5090043;28;20081;-92
2022/07/26 06:06:58;;;;;;;9.00;1.80;;;18.40;99.90;;;;;;5085022;28;20033;-92
2022/07/26 06:09:25;;;;;;;7.60;1.50;;;18.40;99.90;;;;;;5080541;28;20040;-91
2022/07/26 06:11:51;;;;;;;7.57;1.70;;;18.40;99.90;;;;;;5085345;28;20039;-91
2022/07/26 06:14:18;;;;;;;7.93;1.92;;;18.50;99.90;;;;;;5091971;28;20040;-91
2022/07/26 06:16:45;;;;;;;9.38;1.92;;;18.50;99.90;;;;;;5082615;28;20024;-92
2022/07/26 06:19:10;;;;;;;7.45;1.58;;;18.50;99.90;;;;;;5090617;28;20040;-91
2022/07/26 06:21:36;;;;;;;9.13;1.88;;;18.60;99.90;;;;;;5093932;28;20047;-91
2022/07/26 06:24:01;;;;;;;8.60;2.00;;;18.50;99.90;;;;;;5093873;28;20037;-90
2022/07/26 06:26:27;;;;;;;9.65;1.75;;;18.60;99.90;;;;;;5093051;28;20447;-91
2022/07/26 06:28:53;;;;;;;8.40;1.80;;;18.60;99.90;;;;;;5084279;28;20040;-92
2022/07/26 06:31:18;;;;;;;8.93;1.42;;;18.50;99.90;;;;;;5100243;28;20550;-91
2022/07/26 06:33:44;;;;;;;6.65;1.20;;;18.60;99.90;;;;;;5088848;28;20521;-91
2022/07/26 06:36:10;;;;;;;10.90;1.75;;;18.60;99.90;;;;;;5092008;28;20044;-91
2022/07/26 06:38:35;;;;;;;7.45;1.42;;;18.60;99.90;;;;;;5093412;28;20028;-92
2022/07/26 06:41:01;;;;;;;6.70;1.30;;;18.60;99.90;;;;;;5091203;28;20036;-91
2022/07/26 06:43:27;;;;;;;7.18;1.42;;;18.60;99.90;;;;;;5093519;28;20028;-92
2022/07/26 06:45:52;;;;;;;7.93;1.63;;;18.60;99.90;;;;;;5091531;28;20402;-91
2022/07/26 06:48:18;;;;;;;7.43;1.50;;;18.60;99.90;;;;;;5091739;28;20040;-93
2022/07/26 06:50:44;;;;;;;8.73;1.73;;;18.70;99.90;;;;;;5093030;28;20059;-92
2022/07/26 06:53:09;;;;;;;7.63;1.30;;;18.70;99.90;;;;;;5092002;28;20040;-92
2022/07/26 06:55:35;;;;;;;7.18;1.52;;;18.80;99.90;;;;;;5091421;28;20076;-92
2022/07/26 06:58:00;;;;;;;8.55;1.50;;;18.80;99.90;;;;;;5092075;28;20494;-92
2022/07/26 07:00:26;;;;;;;7.32;1.10;;;18.80;99.90;;;;;;5091193;28;20036;-92
2022/07/26 07:02:52;;;;;;;5.88;1.05;;;18.80;99.90;;;;;;5092772;28;20040;-92
2022/07/26 07:05:17;;;;;;;7.40;1.25;;;18.70;99.90;;;;;;5092360;28;20497;-91
2022/07/26 07:07:43;;;;;;;6.65;1.23;;;18.70;99.90;;;;;;5092485;28;20444;-91
2022/07/26 07:10:09;;;;;;;6.75;1.30;;;18.70;99.90;;;;;;5091328;28;20093;-90
2022/07/26 07:12:34;;;;;;;7.85;1.60;;;18.70;99.90;;;;;;5092858;28;20032;-92
2022/07/26 07:15:00;;;;;;;7.30;1.30;;;18.70;99.90;;;;;;5091059;28;20428;-92
2022/07/26 07:17:26;;;;;;;7.50;1.30;;;18.70;99.90;;;;;;5092529;28;20047;-92
2022/07/26 07:19:51;;;;;;;6.75;1.52;;;18.80;99.90;;;;;;5092057;28;20493;-91
2022/07/26 07:22:17;;;;;;;9.35;1.35;;;18.80;99.90;;;;;;5092652;28;20043;-92
2022/07/26 07:24:43;;;;;;;7.93;1.48;;;18.80;99.90;;;;;;5091700;28;20119;-92
2022/07/26 07:27:09;;;;;;;7.22;1.10;;;18.90;99.90;;;;;;5092619;28;20036;-92
2022/07/26 07:29:35;;;;;;;7.38;1.20;;;18.90;99.90;;;;;;5091057;28;20028;-92
2022/07/26 07:32:00;;;;;;;6.50;1.10;;;18.90;99.90;;;;;;5091004;28;20036;-92
2022/07/26 07:34:26;;;;;;;7.70;1.20;;;18.90;99.90;;;;;;5090709;28;20036;-91
2022/07/26 07:36:52;;;;;;;6.43;1.23;;;18.90;99.90;;;;;;5091393;28;20097;-92
2022/07/26 07:39:18;;;;;;;6.20;0.90;;;18.90;99.90;;;;;;5091937;28;20039;-91
2022/07/26 07:41:45;;;;;;;5.85;1.08;;;18.90;99.90;;;;;;5091755;28;20518;-91
2022/07/26 07:44:10;;;;;;;7.88;1.35;;;18.80;99.90;;;;;;5092457;28;20064;-91
2022/07/26 07:46:36;;;;;;;6.82;1.10;;;18.90;99.90;;;;;;5091250;28;20076;-92
2022/07/26 07:49:02;;;;;;;6.93;1.20;;;18.90;99.90;;;;;;5086595;28;20500;-92
2022/07/26 07:51:28;;;;;;;5.63;1.25;;;18.90;99.90;;;;;;5077464;28;20297;-92
2022/07/26 07:53:54;;;;;;;8.70;1.30;;;19.00;99.90;;;;;;5072369;28;20538;-92
2022/07/26 07:56:19;;;;;;;6.43;1.30;;;19.00;99.90;;;;;;5072026;28;20063;-92
2022/07/26 07:58:45;;;;;;;6.05;0.90;;;19.10;99.90;;;;;;5072504;28;20040;-92
2022/07/26 08:01:11;;;;;;;7.10;1.20;;;19.10;99.90;;;;;;5072270;28;20040;-91
2022/07/26 08:03:37;;;;;;;6.25;1.30;;;19.20;99.90;;;;;;5071505;28;20089;-91
2022/07/26 08:06:05;;;;;;;8.90;1.55;;;19.20;99.90;;;;;;5072073;28;20581;-92
2022/07/26 08:08:31;;;;;;;6.50;1.48;;;19.30;99.90;;;;;;5072220;28;20043;-91
2022/07/26 08:10:57;;;;;;;5.72;1.52;;;19.30;99.90;;;;;;5071988;28;20040;-92
2022/07/26 08:13:23;;;;;;;7.03;1.05;;;19.40;99.90;;;;;;5071031;28;20082;-92
2022/07/26 08:15:53;;;;;;;7.10;1.25;;;19.40;99.90;;;;;;5072121;28;20032;-92
2022/07/26 08:18:20;;;;;;;5.22;1.10;;;19.40;99.90;;;;;;5071751;28;20119;-92
2022/07/26 08:20:46;;;;;;;5.47;1.20;;;19.30;99.90;;;;;;5072182;28;20409;-93
2022/07/26 08:23:12;;;;;;;10.77;1.48;;;19.30;99.90;;;;;;5070811;28;20516;-93
2022/07/26 08:25:37;;;;;;;5.90;1.05;;;19.30;99.90;;;;;;5071763;28;20044;-93
2022/07/26 08:28:03;;;;;;;7.50;1.27;;;19.20;99.90;;;;;;5069336;28;20044;-93
2022/07/26 08:30:32;;;;;;;6.55;1.27;;;19.20;99.90;;;;;;5071674;28;20050;-93
2022/07/26 08:32:58;;;;;;;8.95;1.42;;;19.20;99.90;;;;;;5071384;28;20032;-93
2022/07/26 08:35:25;;;;;;;6.47;1.23;;;19.20;99.90;;;;;;5071578;28;20048;-93
2022/07/26 08:37:50;;;;;;;8.68;2.00;;;19.10;99.90;;;;;;5070200;28;20051;-93
2022/07/26 08:40:16;;;;;;;7.72;1.70;;;19.10;99.90;;;;;;5071264;28;20036;-93
2022/07/26 08:42:52;;;;;;;8.00;1.60;;;19.10;99.90;;;;;;5071944;28;20145;-93
2022/07/26 08:45:29;;;;;;;9.48;2.20;;;19.20;99.90;;;;;;5070047;28;20045;-93
2022/07/26 08:47:56;;;;;;;9.43;2.00;;;19.30;99.90;;;;;;5071802;28;20490;-92
2022/07/26 08:50:22;;;;;;;10.60;2.00;;;19.30;99.90;;;;;;5070413;28;20052;-93
2022/07/26 08:52:49;;;;;;;6.80;1.48;;;19.40;99.90;;;;;;5071557;28;20037;-93
2022/07/26 08:55:16;;;;;;;7.30;1.58;;;19.50;99.90;;;;;;5070286;28;20070;-93
2022/07/26 08:57:42;;;;;;;9.77;3.15;;;19.60;99.90;;;;;;5087314;28;20093;-92
2022/07/26 09:00:20;;;;;;;8.07;2.65;;;19.70;99.90;;;;;;5071719;28;20041;-92
2022/07/26 09:02:47;;;;;;;9.48;1.70;;;19.80;99.90;;;;;;5071621;28;20032;-93
2022/07/26 09:05:13;;;;;;;10.95;2.08;;;19.90;99.90;;;;;;5071459;28;20076;-92
2022/07/26 09:07:39;;;;;;;9.13;1.42;;;20.00;99.90;;;;;;5071343;28;20037;-93
2022/07/26 09:10:12;;;;;;;6.75;1.30;;;20.10;99.90;;;;;;5071710;28;20047;-93
2022/07/26 09:12:39;;;;;;;8.48;1.90;;;20.20;99.90;;;;;;5087353;28;20035;-92
2022/07/26 09:15:15;;;;;;;6.70;1.13;;;20.30;99.90;;;;;;5071551;28;20076;-92
2022/07/26 09:17:44;;;;;;;7.55;1.58;;;20.50;99.90;;;;;;5074728;28;20047;-92
2022/07/26 09:20:16;;;;;;;7.43;1.90;;;20.50;99.90;;;;;;5074704;28;20052;-93
2022/07/26 09:23:03;;;;;;;5.57;1.27;;;20.50;99.90;;;;;;5075379;28;20119;-92
2022/07/26 09:25:36;;;;;;;6.20;1.08;;;20.50;99.90;;;;;;5087526;28;20054;-92
2022/07/26 09:28:03;;;;;;;7.38;1.30;;;20.50;99.90;;;;;;5092649;28;20382;-92
2022/07/26 09:30:30;;;;;;;7.10;1.60;;;20.40;99.90;;;;;;5110414;28;20036;-92
2022/07/26 09:33:05;;;;;;;10.85;2.05;;;20.40;99.90;;;;;;5087892;28;20040;-92
2022/07/26 09:35:37;;;;;;;8.77;1.80;;;20.40;99.90;;;;;;5095318;28;20111;-93
2022/07/26 09:38:14;;;;;;;7.40;1.75;;;20.40;99.90;;;;;;5095254;28;20040;-93
2022/07/26 09:40:41;;;;;;;7.55;1.92;;;20.30;99.90;;;;;;5094634;28;20465;-92
2022/07/26 09:43:07;;;;;;;7.00;1.30;;;20.20;99.90;;;;;;5081350;28;20040;-93
2022/07/26 09:45:34;;;;;;;8.48;2.20;;;20.20;99.90;;;;;;5093630;28;20329;-92
2022/07/26 09:48:01;;;;;;;6.15;1.58;;;20.20;99.90;;;;;;5111128;28;20412;-93
2022/07/26 09:50:31;;;;;;;9.40;1.40;;;20.20;99.90;;;;;;5095410;28;20067;-93
2022/07/26 09:53:08;;;;;;;6.28;1.45;;;20.10;99.90;;;;;;5094826;28;20072;-93
2022/07/26 09:55:43;;;;;;;5.85;1.25;;;20.20;99.90;;;;;;5093521;28;20044;-93
2022/07/26 09:58:12;;;;;;;7.80;1.40;;;20.20;99.90;;;;;;5095098;28;20123;-92
2022/07/26 10:00:38;;;;;;;7.07;1.33;;;20.20;99.90;;;;;;5093641;28;20497;-93
2022/07/26 10:03:04;;;;;;;8.15;2.63;;;20.30;99.90;;;;;;5094835;28;20036;-92
2022/07/26 10:05:31;;;;;;;9.75;3.35;;;20.30;99.90;;;;;;5094482;28;20036;-92
2022/07/26 10:07:58;;;;;;;7.93;1.75;;;20.40;99.90;;;;;;5094524;28;20040;-92
2022/07/26 10:10:39;;;;;;;8.40;1.35;;;20.50;99.90;;;;;;5127395;27;20409;-93
2022/07/26 10:13:06;;;;;;;7.78;1.40;;;20.60;99.90;;;;;;5088331;28;20044;-92
2022/07/26 10:15:47;;;;;;;7.32;1.30;;;20.70;99.90;;;;;;5079666;28;20040;-93
2022/07/26 10:18:34;;;;;;;6.90;1.40;;;20.70;99.90;;;;;;5074084;28;20048;-93
2022/07/26 10:21:20;;;;;;;7.00;1.40;;;20.90;99.90;;;;;;5074164;28;20052;-93
2022/07/26 10:23:48;;;;;;;6.95;1.40;;;21.00;99.90;;;;;;5073125;28;20037;-93
2022/07/26 10:26:32;;;;;;;6.32;1.20;;;21.00;99.90;;;;;;5073742;28;20040;-93
2022/07/26 10:29:16;;;;;;;8.95;1.70;;;21.10;99.90;;;;;;5073993;28;20384;-93
2022/07/26 10:32:09;;;;;;;8.60;1.33;;;21.20;99.90;;;;;;5073748;28;20043;-92
2022/07/26 10:34:38;;;;;;;7.40;1.67;;;21.20;99.90;;;;;;5073517;28;20033;-93
2022/07/26 10:37:07;;;;;;;7.22;1.40;;;21.20;99.90;;;;;;5074052;28;20040;-93
2022/07/26 10:39:33;;;;;;;6.18;1.33;;;21.30;99.90;;;;;;5082296;28;20106;-93
2022/07/26 10:42:03;;;;;;;7.57;1.42;;;21.30;99.90;;;;;;5086885;28;20425;-93
2022/07/26 10:44:46;;;;;;;7.30;1.38;;;21.40;99.90;;;;;;5091720;28;20036;-92
2022/07/26 10:47:17;;;;;;;8.38;1.55;;;21.50;99.90;;;;;;5083274;28;20052;-93
2022/07/26 10:49:57;;;;;;;9.05;1.90;;;21.60;99.90;;;;;;5072457;28;20048;-93
2022/07/26 10:52:27;;;;;;;8.00;1.63;;;21.50;99.90;;;;;;5084145;28;20127;-93
2022/07/26 10:54:56;;;;;;;10.73;1.70;;;21.50;99.90;;;;;;5083003;28;20353;-93
2022/07/26 10:57:27;;;;;;;8.60;1.98;;;21.40;99.90;;;;;;5073471;28;20049;-93
2022/07/26 10:59:57;;;;;;;8.93;1.95;;;21.30;99.90;;;;;;5081587;28;20048;-93
2022/07/26 11:02:34;;;;;;;8.40;1.50;;;21.10;99.90;;;;;;5073613;28;20040;-93
2022/07/26 11:05:01;;;;;;;8.73;1.60;;;21.10;99.90;;;;;;5073177;28;20101;-93
2022/07/26 11:07:28;;;;;;;6.57;1.52;;;21.00;99.90;;;;;;5073315;28;20044;-93
2022/07/26 11:09:58;;;;;;;8.70;1.85;;;21.00;99.90;;;;;;5073059;28;20076;-93
2022/07/26 11:12:23;;;;;;;8.15;1.55;;;21.00;99.90;;;;;;5073298;28;20044;-93
2022/07/26 11:14:49;;;;;;;8.63;1.63;;;21.00;99.90;;;;;;5076218;28;20115;-93
2022/07/26 11:17:30;;;;;;;9.00;2.53;;;21.10;99.90;;;;;;5072232;28;20048;-93
2022/07/26 11:19:56;;;;;;;10.68;2.90;;;21.10;99.90;;;;;;5072687;28;20033;-93
2022/07/26 11:22:30;;;;;;;10.85;2.90;;;21.10;99.90;;;;;;5072980;28;20047;-93
2022/07/26 11:24:56;;;;;;;10.65;2.83;;;21.20;99.90;;;;;;5072859;28;20053;-93
2022/07/26 11:27:22;;;;;;;10.98;2.40;;;21.20;99.90;;;;;;5073208;28;20029;-93
2022/07/26 11:29:47;;;;;;;10.52;3.47;;;21.10;99.90;;;;;;5079684;28;20066;-93
2022/07/26 11:32:23;;;;;;;10.02;3.40;;;21.00;99.90;;;;;;5071725;28;20115;-92
2022/07/26 11:34:59;;;;;;;13.25;3.35;;;20.90;99.90;;;;;;5072599;28;20036;-93
2022/07/26 11:37:25;;;;;;;14.57;3.17;;;20.90;99.90;;;;;;5071494;28;20126;-93
2022/07/26 11:39:50;;;;;;;13.27;4.00;;;20.80;99.90;;;;;;5071799;28;20492;-92
2022/07/26 11:42:18;;;;;;;13.55;3.90;;;20.80;99.90;;;;;;5072784;28;20494;-93
2022/07/26 11:44:45;;;;;;;14.35;3.85;;;20.70;99.90;;;;;;5088019;28;20120;-93
2022/07/26 11:47:12;;;;;;;12.55;2.78;;;20.70;99.90;;;;;;5072909;28;20041;-92
2022/07/26 11:49:38;;;;;;;11.38;2.53;;;20.70;99.90;;;;;;5077252;28;20032;-93
2022/07/26 11:52:04;;;;;;;10.88;2.45;;;20.80;99.90;;;;;;5080324;28;20037;-92
2022/07/26 11:54:32;;;;;;;10.40;2.30;;;20.80;99.90;;;;;;5079066;28;20032;-93
2022/07/26 11:57:03;;;;;;;11.00;2.30;;;20.90;99.90;;;;;;5083243;28;20039;-93
2022/07/26 11:59:32;;;;;;;11.55;2.80;;;21.00;99.90;;;;;;5081689;28;20040;-93
2022/07/26 12:01:59;;;;;;;10.68;2.55;;;21.00;99.90;;;;;;5077051;28;20042;-92
2022/07/26 12:04:31;;;;;;;10.93;2.40;;;21.10;99.90;;;;;;5072223;28;20036;-93
2022/07/26 12:06:59;;;;;;;12.82;2.42;;;21.20;99.90;;;;;;5071055;28;20122;-93
2022/07/26 12:09:35;;;;;;;11.77;2.75;;;21.20;99.90;;;;;;5072081;28;20078;-93
2022/07/26 12:12:03;;;;;;;10.38;2.28;;;21.20;99.90;;;;;;5071159;28;20040;-93
2022/07/26 12:14:31;;;;;;;9.30;2.35;;;21.20;99.90;;;;;;5070883;28;20056;-93
2022/07/26 12:16:57;;;;;;;9.80;2.30;;;21.10;99.90;;;;;;5071950;28;20044;-93
2022/07/26 12:19:26;;;;;;;10.65;2.90;;;21.10;99.90;;;;;;5070595;28;20570;-92
2022/07/26 12:21:58;;;;;;;10.15;2.25;;;21.00;99.90;;;;;;5072322;28;20515;-93
2022/07/26 12:24:43;;;;;;;8.70;1.85;;;21.00;99.90;;;;;;5071193;28;20501;-92
2022/07/26 12:27:20;;;;;;;9.93;2.25;;;21.00;99.90;;;;;;5070511;28;20043;-93
2022/07/26 12:29:48;;;;;;;9.93;2.35;;;21.00;99.90;;;;;;5071776;28;20044;-93
2022/07/26 12:32:23;;;;;;;9.82;2.15;;;21.00;99.90;;;;;;5070943;28;20035;-93
2022/07/26 12:34:54;;;;;;;10.57;2.50;;;21.00;99.90;;;;;;5072368;28;20043;-93
2022/07/26 12:37:21;;;;;;;10.60;2.58;;;21.00;99.90;;;;;;5070983;28;20052;-93
2022/07/26 12:40:05;;;;;;;10.18;2.17;;;21.10;99.90;;;;;;5070365;28;20517;-93
2022/07/26 12:42:35;;;;;;;9.73;1.80;;;21.10;99.90;;;;;;5054023;28;20444;-93
2022/07/26 12:45:02;;;;;;;8.68;2.10;;;21.10;99.90;;;;;;5071488;28;20048;-93
2022/07/26 12:47:28;;;;;;;9.60;2.13;;;21.10;99.90;;;;;;5070506;28;20041;-93